TimeCDT,TemperatureF,Dew PointF,Humidity,Sea Level PressureIn,VisibilityMPH,Wind Direction,Wind SpeedMPH,Gust SpeedMPH,PrecipitationIn,Events,Conditions,WindDirDegrees,DateUTC
12:15 AM,72.9,71.6,96,30.16,10.0,Calm,Calm,-,N/A,,Clear,0,2013-07-18 05:15:00
12:35 AM,73.2,71.8,95,30.16,10.0,Calm,Calm,-,N/A,,Clear,0,2013-07-18 05:35:00
12:55 AM,73.6,72.0,95,30.16,10.0,Calm,Calm,-,N/A,,Clear,0,2013-07-18 05:55:00
1:15 AM,73.8,72.5,96,30.15,10.0,Calm,Calm,-,N/A,,Clear,0,2013-07-18 06:15:00
1:35 AM,74.3,72.3,94,30.15,10.0,Calm,Calm,-,N/A,,Clear,0,2013-07-18 06:35:00
1:55 AM,73.6,72.0,95,30.15,10.0,Calm,Calm,-,N/A,,Clear,0,2013-07-18 06:55:00
2:15 AM,73.4,72.0,95,30.14,10.0,NW,4.6,-,N/A,,Clear,310,2013-07-18 07:15:00
2:35 AM,72.7,71.8,97,30.14,10.0,NNW,4.6,-,N/A,,Clear,340,2013-07-18 07:35:00
2:55 AM,72.7,72.0,98,30.14,10.0,Calm,Calm,-,N/A,,Clear,0,2013-07-18 07:55:00
3:15 AM,72.9,72.1,98,30.13,10.0,Calm,Calm,-,N/A,,Clear,0,2013-07-18 08:15:00
3:35 AM,73.8,72.9,97,30.13,10.0,Calm,Calm,-,N/A,,Clear,0,2013-07-18 08:35:00
3:55 AM,73.4,72.1,96,30.12,10.0,Calm,Calm,-,N/A,,Clear,0,2013-07-18 08:55:00
4:15 AM,73.0,72.1,97,30.12,10.0,NNW,3.5,-,N/A,,Clear,340,2013-07-18 09:15:00
4:35 AM,72.7,72.0,98,30.11,7.0,Calm,Calm,-,N/A,,Clear,0,2013-07-18 09:35:00
4:55 AM,72.3,71.8,98,30.11,7.0,Calm,Calm,-,N/A,,Clear,0,2013-07-18 09:55:00
5:15 AM,72.1,71.6,98,30.11,10.0,Calm,Calm,-,N/A,,Clear,0,2013-07-18 10:15:00
5:35 AM,72.1,71.6,98,30.12,10.0,Calm,Calm,-,N/A,,Clear,0,2013-07-18 10:35:00
5:55 AM,72.5,71.8,98,30.13,10.0,NNE,3.5,-,N/A,,Clear,20,2013-07-18 10:55:00
6:15 AM,72.5,71.2,96,30.12,10.0,Calm,Calm,-,N/A,,Clear,0,2013-07-18 11:15:00
6:35 AM,74.3,72.5,94,30.12,10.0,Calm,Calm,-,N/A,,Clear,0,2013-07-18 11:35:00
6:55 AM,73.2,72.1,96,30.13,7.0,North,4.6,-,N/A,,Clear,10,2013-07-18 11:55:00
7:15 AM,75.7,73.4,92,30.13,10.0,Calm,Calm,-,N/A,,Clear,0,2013-07-18 12:15:00
7:35 AM,77.2,73.4,88,30.13,10.0,NNE,5.8,-,N/A,,Clear,20,2013-07-18 12:35:00
7:55 AM,78.3,73.8,86,30.14,10.0,NNE,4.6,-,N/A,,Clear,20,2013-07-18 12:55:00
8:15 AM,79.7,73.8,82,30.14,10.0,North,6.9,-,N/A,,Clear,10,2013-07-18 13:15:00
8:35 AM,81.0,73.8,79,30.14,10.0,NNE,5.8,-,N/A,,Clear,20,2013-07-18 13:35:00
8:55 AM,82.4,74.1,76,30.15,10.0,NNE,6.9,-,N/A,,Clear,20,2013-07-18 13:55:00
9:15 AM,83.8,74.3,73,30.15,10.0,North,4.6,-,N/A,,Clear,360,2013-07-18 14:15:00
9:35 AM,84.9,73.8,69,30.15,10.0,North,4.6,-,N/A,,Clear,360,2013-07-18 14:35:00
9:55 AM,86.0,73.4,66,30.16,10.0,NE,4.6,-,N/A,,Clear,40,2013-07-18 14:55:00
10:15 AM,86.9,72.0,61,30.16,10.0,NE,5.8,-,N/A,,Clear,50,2013-07-18 15:15:00
10:35 AM,88.2,70.0,55,30.16,10.0,NE,4.6,-,N/A,,Clear,40,2013-07-18 15:35:00
10:55 AM,89.1,71.2,55,30.15,10.0,NNE,3.5,-,N/A,,Clear,20,2013-07-18 15:55:00
11:15 AM,89.8,70.7,53,30.15,10.0,ENE,5.8,-,N/A,,Clear,60,2013-07-18 16:15:00
11:35 AM,90.1,70.9,53,30.14,10.0,Calm,Calm,-,N/A,,Clear,0,2013-07-18 16:35:00
11:55 AM,90.7,70.7,52,30.14,10.0,North,8.1,-,N/A,,Clear,10,2013-07-18 16:55:00
12:15 PM,92.3,71.2,50,30.14,10.0,North,6.9,-,N/A,,Clear,360,2013-07-18 17:15:00
12:35 PM,91.8,70.0,49,30.13,10.0,East,3.5,-,N/A,,Clear,90,2013-07-18 17:35:00
12:55 PM,92.7,70.9,49,30.13,10.0,East,6.9,-,N/A,,Clear,100,2013-07-18 17:55:00
1:15 PM,93.6,70.9,48,30.12,10.0,East,5.8,-,N/A,,Scattered Clouds,90,2013-07-18 18:15:00
1:35 PM,93.7,70.3,46,30.11,10.0,East,4.6,-,N/A,,Scattered Clouds,90,2013-07-18 18:35:00
1:55 PM,92.8,70.2,47,30.10,10.0,NE,8.1,-,N/A,,Clear,40,2013-07-18 18:55:00
2:15 PM,93.0,69.1,45,30.09,10.0,NE,5.8,-,N/A,,Clear,40,2013-07-18 19:15:00
2:35 PM,93.4,68.4,44,30.08,10.0,ESE,3.5,-,N/A,,Scattered Clouds,110,2013-07-18 19:35:00
2:55 PM,94.6,68.2,42,30.07,10.0,East,5.8,-,N/A,,Mostly Cloudy,90,2013-07-18 19:55:00
3:15 PM,93.6,68.4,44,30.05,10.0,East,4.6,-,N/A,,Scattered Clouds,90,2013-07-18 20:15:00
3:35 PM,93.6,68.2,43,30.04,10.0,NE,4.6,-,N/A,,Scattered Clouds,50,2013-07-18 20:35:00
3:55 PM,95.0,66.7,39,30.04,10.0,ESE,4.6,-,N/A,,Clear,120,2013-07-18 20:55:00
4:15 PM,92.3,66.7,43,30.02,10.0,ENE,3.5,-,N/A,,Scattered Clouds,60,2013-07-18 21:15:00
5:15 PM,81.5,66.6,60,30.01,10.0,South,8.1,-,N/A,Thunderstorm,Scattered Clouds,180,2013-07-18 22:15:00
5:35 PM,83.5,68.5,61,30.02,7.0,South,6.9,-,N/A,,Clear,170,2013-07-18 22:35:00
5:55 PM,83.3,72.1,69,30.02,10.0,SE,6.9,-,N/A,,Clear,140,2013-07-18 22:55:00
6:15 PM,83.8,71.8,67,30.02,10.0,SE,6.9,-,N/A,,Clear,130,2013-07-18 23:15:00
6:35 PM,84.4,72.3,67,30.04,10.0,ESE,5.8,-,N/A,,Scattered Clouds,110,2013-07-18 23:35:00
6:55 PM,84.2,72.7,68,30.04,7.0,ESE,6.9,-,N/A,,Scattered Clouds,120,2013-07-18 23:55:00
7:15 PM,83.8,71.6,66,30.03,10.0,ESE,4.6,-,N/A,,Clear,110,2013-07-19 00:15:00
7:35 PM,83.5,72.0,68,30.05,10.0,NNW,8.1,-,N/A,,Scattered Clouds,340,2013-07-19 00:35:00
7:55 PM,83.3,70.7,66,30.06,10.0,NNE,5.8,-,N/A,,Mostly Cloudy,30,2013-07-19 00:55:00
8:15 PM,80.4,70.0,70,30.07,10.0,North,8.1,-,N/A,,Scattered Clouds,350,2013-07-19 01:15:00
8:35 PM,79.0,70.3,75,30.09,10.0,NNW,11.5,-,N/A,Thunderstorm,Mostly Cloudy,340,2013-07-19 01:35:00
8:55 PM,77.5,70.9,80,30.09,10.0,North,10.4,-,N/A,,Overcast,350,2013-07-19 01:55:00
9:15 PM,76.3,71.6,85,30.08,10.0,North,5.8,-,N/A,,Light Drizzle,360,2013-07-19 02:15:00
9:35 PM,75.7,72.0,88,30.08,10.0,Calm,Calm,-,N/A,,Scattered Clouds,0,2013-07-19 02:35:00
9:55 PM,75.2,72.7,92,30.08,10.0,NNW,6.9,-,N/A,Rain,Light Rain,340,2013-07-19 02:55:00
10:15 PM,74.7,72.9,94,30.07,10.0,North,3.5,-,N/A,Rain,Light Rain,350,2013-07-19 03:15:00
10:35 PM,74.5,73.0,95,30.06,10.0,NW,5.8,-,N/A,Rain,Light Rain,320,2013-07-19 03:35:00
10:55 PM,74.7,73.4,96,30.05,10.0,Calm,Calm,-,N/A,,Clear,0,2013-07-19 03:55:00
11:15 PM,74.5,73.4,96,30.06,10.0,Calm,Calm,-,N/A,,Clear,0,2013-07-19 04:15:00
11:35 PM,74.1,72.9,96,30.06,10.0,NE,3.5,-,N/A,,Clear,50,2013-07-19 04:35:00
11:55 PM,74.7,73.8,97,30.06,10.0,East,5.8,-,N/A,,Clear,80,2013-07-19 04:55:00